createdAt,value
2019-04-10T00:02:50.138Z,55.09
2019-04-10T00:05:54.180Z,55.12
2019-04-10T00:08:58.820Z,55.18
2019-04-10T00:12:02.426Z,55.23
2019-04-10T00:15:07.244Z,55.17
2019-04-10T00:18:10.810Z,55.27
2019-04-10T00:21:15.457Z,55.18
2019-04-10T00:24:19.773Z,55.17
2019-04-10T00:27:23.520Z,55.17
2019-04-10T00:30:27.220Z,55.20
2019-04-10T00:33:30.847Z,55.21
2019-04-10T00:36:35.226Z,55.24
2019-04-10T00:39:39.136Z,55.22
2019-04-10T00:42:43.286Z,55.26
2019-04-10T00:45:47.102Z,55.30
2019-04-10T00:48:50.704Z,55.34
2019-04-10T00:51:55.376Z,55.31
2019-04-10T00:54:59.610Z,55.32
2019-04-10T00:58:03.664Z,55.28
2019-04-10T01:01:07.831Z,55.35
2019-04-10T01:04:12.383Z,55.36
2019-04-10T01:07:16.871Z,55.39
2019-04-10T01:10:22.012Z,55.47
2019-04-10T01:13:25.688Z,55.51
2019-04-10T01:16:29.452Z,55.52
2019-04-10T01:19:34.220Z,55.48
2019-04-10T01:22:39.047Z,55.45
2019-04-10T01:25:42.995Z,55.49
2019-04-10T01:28:47.114Z,55.42
2019-04-10T01:31:51.233Z,55.34
2019-04-10T01:34:55.928Z,55.39
2019-04-10T01:38:01.457Z,55.37
2019-04-10T01:41:05.766Z,55.31
2019-04-10T01:44:09.448Z,55.37
2019-04-10T01:47:13.239Z,55.32
2019-04-10T01:50:17.942Z,55.31
2019-04-10T01:53:21.852Z,55.30
2019-04-10T01:56:31.683Z,55.35
2019-04-10T01:59:32.177Z,55.41
2019-04-10T02:02:39.924Z,55.40
2019-04-10T02:05:43.597Z,55.42
2019-04-10T02:08:47.838Z,55.43
2019-04-10T02:11:52.364Z,55.41
2019-04-10T02:14:56.580Z,55.40
2019-04-10T02:18:01.278Z,55.37
2019-04-10T02:21:04.331Z,55.33
2019-04-10T02:24:09.028Z,55.37
2019-04-10T02:27:12.851Z,55.35
2019-04-10T02:30:19.150Z,55.28
2019-04-10T02:33:23.247Z,55.26
2019-04-10T02:36:29.231Z,55.29
2019-04-10T02:39:38.170Z,55.33
2019-04-10T02:42:38.728Z,55.45
2019-04-10T02:45:42.508Z,55.38
2019-04-10T02:48:47.734Z,55.50
2019-04-10T02:51:51.949Z,55.51
2019-04-10T02:54:55.598Z,55.49
2019-04-10T02:58:00.840Z,55.42
2019-04-10T03:01:05.004Z,55.29
2019-04-10T03:04:09.766Z,55.27
2019-04-10T03:07:15.664Z,55.31
2019-04-10T03:10:26.558Z,55.35
2019-04-10T03:13:26.888Z,55.38
2019-04-10T03:16:31.221Z,55.41
2019-04-10T03:19:35.862Z,55.42
2019-04-10T03:22:40.899Z,55.45
2019-04-10T03:25:45.481Z,55.45
2019-04-10T03:28:49.429Z,55.40
2019-04-10T03:31:56.496Z,55.40
2019-04-10T03:35:03.093Z,55.42
2019-04-10T03:38:07.866Z,55.37
2019-04-10T03:41:10.865Z,55.31
2019-04-10T03:44:14.633Z,55.31
2019-04-10T03:47:18.266Z,55.28
2019-04-10T03:50:22.002Z,55.29
2019-04-10T03:53:26.417Z,55.22
2019-04-10T03:56:30.302Z,55.26
2019-04-10T03:59:33.870Z,55.34
2019-04-10T04:02:38.061Z,55.41
2019-04-10T04:05:42.563Z,55.47
2019-04-10T04:08:46.308Z,55.51
2019-04-10T04:11:50.329Z,55.59
2019-04-10T04:14:54.935Z,55.60
2019-04-10T04:17:58.642Z,55.70
2019-04-10T04:21:03.415Z,55.71
2019-04-10T04:24:07.314Z,55.76
2019-04-10T04:27:11.167Z,55.78
2019-04-10T04:30:14.824Z,55.76
2019-04-10T04:33:19.019Z,55.82
2019-04-10T04:36:22.922Z,55.78
2019-04-10T04:39:28.423Z,55.77
2019-04-10T04:42:32.988Z,55.81
2019-04-10T04:45:36.057Z,55.82
2019-04-10T04:48:39.724Z,55.86
2019-04-10T04:51:43.783Z,55.86
2019-04-10T04:54:47.773Z,55.85
2019-04-10T04:57:51.425Z,55.84
2019-04-10T05:00:55.056Z,55.76
2019-04-10T05:03:58.712Z,55.78
2019-04-10T05:07:02.384Z,55.82
2019-04-10T05:10:07.578Z,55.90
2019-04-10T05:13:11.248Z,55.90
2019-04-10T05:16:15.083Z,55.89
2019-04-10T05:19:19.045Z,55.96
2019-04-10T05:22:22.734Z,56.00
2019-04-10T05:25:27.311Z,56.06
2019-04-10T05:28:31.135Z,56.13
2019-04-10T05:31:34.722Z,56.12
2019-04-10T05:34:38.522Z,56.15
2019-04-10T05:37:43.479Z,56.11
2019-04-10T05:40:48.468Z,56.08
2019-04-10T05:43:53.003Z,56.00
2019-04-10T05:46:56.954Z,56.04
2019-04-10T05:50:00.638Z,56.04
2019-04-10T05:53:04.431Z,56.08
2019-04-10T05:56:08.116Z,56.07
2019-04-10T05:59:13.174Z,56.06
2019-04-10T06:02:17.861Z,56.19
2019-04-10T06:05:22.355Z,56.15
2019-04-10T06:08:26.372Z,56.21
2019-04-10T06:11:30.995Z,56.32
2019-04-10T06:14:34.537Z,56.32
2019-04-10T06:17:38.639Z,56.34
2019-04-10T06:20:42.561Z,56.19
2019-04-10T06:23:47.590Z,56.15
2019-04-10T06:26:52.048Z,56.27
2019-04-10T06:29:57.807Z,56.22
2019-04-10T06:33:02.199Z,56.05
2019-04-10T06:36:06.051Z,56.06
2019-04-10T06:39:10.798Z,55.84
2019-04-10T06:42:14.250Z,55.75
2019-04-10T06:45:18.344Z,55.58
2019-04-10T06:48:22.034Z,55.50
2019-04-10T06:51:25.854Z,55.52
2019-04-10T06:54:29.525Z,55.46
2019-04-10T06:57:45.069Z,55.42
2019-04-10T07:00:39.155Z,55.42
2019-04-10T07:03:52.660Z,55.33
2019-04-10T07:06:57.979Z,55.39
2019-04-10T07:09:55.143Z,55.44
2019-04-10T07:12:59.681Z,55.18
2019-04-10T07:16:04.203Z,55.12
2019-04-10T07:19:10.375Z,54.81
2019-04-10T07:22:15.548Z,53.40
2019-04-10T07:25:19.659Z,54.20
2019-04-10T07:28:23.812Z,51.48
2019-04-10T07:31:30.335Z,51.36
2019-04-10T07:34:34.134Z,51.45
2019-04-10T07:37:38.310Z,51.37
2019-04-10T07:40:42.906Z,49.16
2019-04-10T07:43:52.430Z,49.91
2019-04-10T07:46:52.971Z,48.86
2019-04-10T07:49:59.449Z,49.22
2019-04-10T07:53:02.170Z,46.51
2019-04-10T07:56:10.506Z,48.06
2019-04-10T07:59:11.569Z,48.95
2019-04-10T08:02:16.358Z,48.86
2019-04-10T08:05:20.965Z,47.65
2019-04-10T08:08:25.652Z,49.04
2019-04-10T08:11:29.691Z,48.46
2019-04-10T08:14:33.316Z,46.51
2019-04-10T08:17:37.074Z,45.77
2019-04-10T08:20:40.862Z,47.26
2019-04-10T08:23:44.683Z,47.98
2019-04-10T08:26:49.278Z,47.26
2019-04-10T08:29:52.978Z,47.51
2019-04-10T08:33:01.035Z,46.84
2019-04-10T08:36:03.229Z,47.25
2019-04-10T08:39:07.819Z,46.69
2019-04-10T08:42:12.696Z,47.28
2019-04-10T08:45:16.819Z,46.73
2019-04-10T08:48:20.595Z,47.97
2019-04-10T08:51:25.518Z,46.58
2019-04-10T08:54:28.979Z,45.10
2019-04-10T08:57:34.099Z,45.90
2019-04-10T09:00:38.266Z,45.70
2019-04-10T09:03:41.911Z,45.28
2019-04-10T09:06:45.929Z,45.59
2019-04-10T09:09:49.958Z,45.80
2019-04-10T09:12:54.564Z,45.92
2019-04-10T09:16:00.409Z,46.04
2019-04-10T09:19:04.474Z,46.15
2019-04-10T09:22:08.641Z,46.30
2019-04-10T09:25:13.171Z,46.28
2019-04-10T09:28:18.161Z,46.11
2019-04-10T09:31:22.140Z,46.16
2019-04-10T09:34:25.938Z,46.32
2019-04-10T09:37:31.053Z,46.42
2019-04-10T09:40:36.186Z,46.00
2019-04-10T09:43:40.156Z,45.75
2019-04-10T09:46:45.046Z,45.91
2019-04-10T09:49:49.300Z,46.06
2019-04-10T09:52:53.098Z,45.94
2019-04-10T09:55:56.898Z,45.96
2019-04-10T09:59:00.866Z,45.97
2019-04-10T10:02:04.871Z,45.88
2019-04-10T10:05:08.579Z,46.06
2019-04-10T10:08:12.716Z,45.82
2019-04-10T10:11:16.576Z,45.43
2019-04-10T10:14:21.011Z,43.14
2019-04-10T10:17:24.928Z,45.41
2019-04-10T10:20:29.660Z,45.50
2019-04-10T10:23:33.988Z,45.32
2019-04-10T10:26:37.710Z,45.64
2019-04-10T10:29:41.941Z,45.89
2019-04-10T10:32:45.714Z,45.81
2019-04-10T10:35:49.616Z,45.78
2019-04-10T10:39:05.011Z,45.77
2019-04-10T10:41:58.912Z,45.45
2019-04-10T10:45:02.938Z,45.58
2019-04-10T10:48:08.626Z,45.61
2019-04-10T10:51:12.867Z,45.30
2019-04-10T10:54:16.916Z,44.92
2019-04-10T10:57:20.550Z,45.55
2019-04-10T11:00:25.219Z,45.25
2019-04-10T11:03:30.690Z,45.07
2019-04-10T11:06:36.337Z,45.48
2019-04-10T11:09:42.128Z,45.11
2019-04-10T11:12:48.779Z,44.51
2019-04-10T11:15:53.314Z,44.97
2019-04-10T11:19:00.507Z,44.81
2019-04-10T11:22:05.187Z,44.97
2019-04-10T11:25:09.116Z,44.69
2019-04-10T11:28:14.018Z,44.75
2019-04-10T11:31:17.427Z,45.18
2019-04-10T11:34:22.610Z,45.56
2019-04-10T11:37:35.910Z,45.82
2019-04-10T11:40:34.309Z,45.89
2019-04-10T11:43:38.430Z,45.90
2019-04-10T11:46:42.295Z,45.89
2019-04-10T11:49:47.241Z,46.07
2019-04-10T11:52:53.345Z,45.97
2019-04-10T11:55:59.468Z,45.85
2019-04-10T11:59:04.420Z,45.53
2019-04-10T12:02:08.824Z,45.59
2019-04-10T12:08:46.410Z,45.77
2019-04-10T12:11:26.262Z,45.67
2019-04-10T12:14:30.218Z,45.65
2019-04-10T12:17:33.944Z,45.61
2019-04-10T12:20:37.624Z,45.32
2019-04-10T12:23:41.682Z,45.56
2019-04-10T12:26:45.248Z,45.22
2019-04-10T12:29:48.914Z,45.37
2019-04-10T12:32:52.795Z,45.32
2019-04-10T12:36:00.832Z,45.28
2019-04-10T12:39:07.891Z,45.25
2019-04-10T12:42:12.265Z,45.23
2019-04-10T12:45:15.966Z,44.91
2019-04-10T12:48:22.708Z,44.88
2019-04-10T12:51:27.703Z,45.24
2019-04-10T12:54:33.494Z,45.20
2019-04-10T12:57:37.566Z,45.58
2019-04-10T13:00:42.841Z,45.26
2019-04-10T13:03:47.340Z,45.06
2019-04-10T13:06:52.562Z,45.17
2019-04-10T13:09:58.155Z,44.98
2019-04-10T13:13:02.037Z,44.89
2019-04-10T13:16:05.731Z,44.75
2019-04-10T13:19:09.409Z,45.36
2019-04-10T13:22:13.170Z,45.20
2019-04-10T13:25:16.821Z,45.20
2019-04-10T13:28:20.473Z,45.11
2019-04-10T13:31:24.252Z,44.98
2019-04-10T13:34:29.093Z,44.61
2019-04-10T13:37:33.763Z,44.87
2019-04-10T13:40:37.577Z,44.96
2019-04-10T13:43:42.297Z,44.94
2019-04-10T13:46:46.153Z,44.75
2019-04-10T13:49:51.125Z,44.92
2019-04-10T13:52:55.470Z,44.66
2019-04-10T13:55:59.262Z,45.09
2019-04-10T13:59:03.191Z,45.06
2019-04-10T14:02:08.931Z,44.81
2019-04-10T14:05:14.288Z,44.79
2019-04-10T14:08:18.683Z,44.68
2019-04-10T14:11:22.595Z,44.96
2019-04-10T14:14:26.743Z,45.08
2019-04-10T14:17:30.916Z,45.23
2019-04-10T14:20:35.435Z,45.51
2019-04-10T14:23:39.588Z,45.70
2019-04-10T14:26:58.119Z,45.93
2019-04-10T14:30:03.027Z,46.13
2019-04-10T14:33:07.201Z,46.16
2019-04-10T14:36:11.761Z,45.89
2019-04-10T14:39:19.624Z,46.15
2019-04-10T14:42:21.108Z,46.11
2019-04-10T14:45:25.596Z,46.10
2019-04-10T14:48:32.116Z,46.46
2019-04-10T14:51:36.680Z,47.29
2019-04-10T14:54:40.762Z,48.44
2019-04-10T14:57:45.463Z,48.44
2019-04-10T15:00:49.725Z,48.79
2019-04-10T15:03:54.942Z,48.79
2019-04-10T15:06:58.123Z,48.75
2019-04-10T15:13:10.070Z,48.70
2019-04-10T15:16:10.230Z,48.91
2019-04-10T15:19:13.848Z,48.79
2019-04-10T15:22:17.831Z,48.86
2019-04-10T15:25:22.960Z,49.04
2019-04-10T15:28:28.260Z,49.67
2019-04-10T15:31:31.959Z,49.35
2019-04-10T15:34:35.806Z,49.17
2019-04-10T15:37:39.625Z,49.61
2019-04-10T15:40:44.092Z,49.89
2019-04-10T15:43:50.044Z,50.75
2019-04-10T15:46:53.347Z,50.46
2019-04-10T15:49:57.722Z,50.86
2019-04-10T15:53:02.128Z,51.17
2019-04-10T15:56:06.052Z,51.25
2019-04-10T15:59:10.185Z,51.59
2019-04-10T16:02:15.326Z,51.33
2019-04-10T16:05:19.525Z,51.28
2019-04-10T16:08:24.197Z,52.21
2019-04-10T16:11:38.388Z,51.96
2019-04-10T16:14:42.455Z,51.94
2019-04-10T16:17:52.216Z,51.97
2019-04-10T16:20:56.374Z,53.28
2019-04-10T16:24:07.416Z,52.58
2019-04-10T16:27:11.856Z,52.90
2019-04-10T16:30:17.297Z,53.58
2019-04-10T16:33:21.095Z,54.38
2019-04-10T16:36:26.321Z,54.66
2019-04-10T16:39:30.953Z,54.07
2019-04-10T16:42:34.869Z,54.02
2019-04-10T16:45:39.032Z,54.52
2019-04-10T16:48:42.732Z,54.54
2019-04-10T16:51:46.490Z,54.44
2019-04-10T16:54:51.364Z,54.56
2019-04-10T16:57:55.733Z,55.11
2019-04-10T17:01:00.112Z,55.40
2019-04-10T17:04:04.889Z,55.21
2019-04-10T17:07:08.656Z,55.32
2019-04-10T17:10:19.396Z,55.43
2019-04-10T17:13:19.323Z,55.30
2019-04-10T17:16:23.920Z,55.59
2019-04-10T17:19:28.754Z,55.36
2019-04-10T17:22:42.282Z,55.87
2019-04-10T17:25:38.271Z,57.03
2019-04-10T17:28:42.728Z,57.28
2019-04-10T17:31:46.773Z,58.97
2019-04-10T17:34:51.343Z,58.33
2019-04-10T17:37:56.187Z,57.88
2019-04-10T17:41:02.176Z,60.15
2019-04-10T17:44:05.558Z,59.43
2019-04-10T17:47:09.976Z,60.01
2019-04-10T17:50:16.243Z,59.54
2019-04-10T17:53:21.113Z,60.23
2019-04-10T17:56:26.122Z,60.15
2019-04-10T17:59:30.303Z,60.01
2019-04-10T18:02:34.755Z,59.91
2019-04-10T18:05:39.146Z,59.67
2019-04-10T18:08:43.214Z,59.77
2019-04-10T18:11:47.707Z,59.66
2019-04-10T18:14:51.556Z,59.67
2019-04-10T18:17:55.604Z,59.72
2019-04-10T18:21:01.196Z,59.75
2019-04-10T18:24:04.813Z,59.71
2019-04-10T18:27:12.910Z,59.92
2019-04-10T18:30:16.544Z,59.98
2019-04-10T18:33:20.454Z,59.79
2019-04-10T18:36:24.370Z,59.82
2019-04-10T18:39:28.379Z,59.75
2019-04-10T18:42:32.893Z,59.82
2019-04-10T18:45:39.387Z,59.99
2019-04-10T18:48:45.616Z,59.77
2019-04-10T18:51:48.560Z,59.86
2019-04-10T18:54:52.445Z,60.01
2019-04-10T18:57:56.920Z,59.94
2019-04-10T19:01:18.952Z,60.08
2019-04-10T19:04:27.365Z,60.12
2019-04-10T19:07:32.260Z,60.10
2019-04-10T19:10:36.784Z,60.18
2019-04-10T19:13:40.815Z,60.12
2019-04-10T19:16:45.796Z,59.93
2019-04-10T19:19:50.782Z,59.90
2019-04-10T19:22:55.030Z,59.76
2019-04-10T19:25:58.973Z,59.74
2019-04-10T19:29:03.308Z,59.74
2019-04-10T19:32:09.922Z,59.73
2019-04-10T19:35:14.828Z,59.73
2019-04-10T19:38:19.001Z,59.66
2019-04-10T19:41:29.667Z,59.57
2019-04-10T19:44:28.974Z,59.65
2019-04-10T19:47:32.685Z,59.69
2019-04-10T19:50:37.320Z,59.73
2019-04-10T19:53:41.541Z,59.76
2019-04-10T19:56:45.298Z,59.72
2019-04-10T19:59:50.035Z,59.79
2019-04-10T20:02:55.286Z,59.84
2019-04-10T20:05:58.930Z,59.91
2019-04-10T20:09:04.193Z,59.98
2019-04-10T20:12:08.576Z,60.07
2019-04-10T20:15:12.372Z,60.07
2019-04-10T20:18:16.770Z,60.10
2019-04-10T20:21:20.681Z,60.26
2019-04-10T20:24:25.032Z,60.34
2019-04-10T20:27:28.848Z,60.50
2019-04-10T20:30:33.408Z,60.63
2019-04-10T20:33:37.084Z,60.67
2019-04-10T20:36:41.624Z,60.75
2019-04-10T20:39:45.439Z,60.70
2019-04-10T20:42:50.580Z,60.68
2019-04-10T20:45:55.856Z,60.71
2019-04-10T20:49:00.571Z,60.75
2019-04-10T20:52:04.586Z,60.72
2019-04-10T20:55:09.107Z,60.77
2019-04-10T20:58:13.394Z,60.84
2019-04-10T21:01:20.343Z,60.93
2019-04-10T21:04:25.442Z,61.00
2019-04-10T21:07:29.820Z,61.10
2019-04-10T21:10:33.819Z,61.18
2019-04-10T21:13:38.420Z,61.18
2019-04-10T21:16:42.306Z,61.28
2019-04-10T21:19:46.062Z,61.43
2019-04-10T21:22:53.442Z,61.56
2019-04-10T21:25:57.650Z,61.57
2019-04-10T21:32:43.458Z,61.63
2019-04-10T21:35:47.716Z,61.73
2019-04-10T21:38:52.555Z,61.80
2019-04-10T21:42:08.399Z,61.86
2019-04-10T21:45:01.950Z,61.94
2019-04-10T21:48:06.391Z,62.00
2019-04-10T21:51:10.866Z,62.06
2019-04-10T21:54:14.874Z,62.16
2019-04-10T21:57:18.586Z,62.21
2019-04-10T22:00:24.089Z,62.31
2019-04-10T22:03:27.913Z,62.51
2019-04-10T22:06:39.785Z,62.61
2019-04-10T22:10:01.732Z,62.75
2019-04-10T22:13:05.907Z,62.81
2019-04-10T22:16:11.538Z,62.96
2019-04-10T22:19:16.625Z,62.98
2019-04-10T22:22:20.576Z,63.00
2019-04-10T22:25:24.268Z,63.00
2019-04-10T22:28:28.731Z,63.04
2019-04-10T22:31:33.067Z,63.06
2019-04-10T22:34:38.384Z,63.03
2019-04-10T22:37:42.106Z,63.06
2019-04-10T22:40:46.246Z,63.12
2019-04-10T22:43:50.098Z,63.14
2019-04-10T22:46:54.443Z,63.14
2019-04-10T22:49:58.148Z,63.17
2019-04-10T22:53:01.983Z,63.22
2019-04-10T22:56:06.836Z,63.16
2019-04-10T22:59:10.865Z,63.20
2019-04-10T23:02:16.111Z,63.18
2019-04-10T23:05:20.432Z,63.29
2019-04-10T23:08:25.331Z,63.35
2019-04-10T23:11:35.497Z,63.43
2019-04-10T23:14:34.529Z,63.46
2019-04-10T23:17:38.994Z,63.54
2019-04-10T23:20:43.853Z,63.63
2019-04-10T23:23:47.341Z,63.68
2019-04-10T23:26:53.347Z,63.68
2019-04-10T23:29:57.139Z,63.76
2019-04-10T23:33:02.362Z,63.83
2019-04-10T23:36:06.027Z,63.87
2019-04-10T23:39:10.101Z,63.73
2019-04-10T23:42:14.898Z,63.84
2019-04-10T23:45:18.062Z,63.81
2019-04-10T23:48:22.493Z,63.85
2019-04-10T23:51:27.353Z,63.87
2019-04-10T23:54:31.200Z,63.88
2019-04-10T23:57:35.681Z,63.89
